sensor_id;sensor_type;location;lat;lon;timestamp;P1;durP1;ratioP1;P2;durP2;ratioP2
2486;SDS011;1254;49.144;8.212;2023-03-12T00:01:21;26.80;;;12.15;;
2486;SDS011;1254;49.144;8.212;2023-03-12T00:03:52;20.95;;;11.00;;
2486;SDS011;1254;49.144;8.212;2023-03-12T00:06:21;22.52;;;10.48;;
2486;SDS011;1254;49.144;8.212;2023-03-12T00:08:50;18.25;;;10.85;;
2486;SDS011;1254;49.144;8.212;2023-03-12T00:11:18;28.23;;;12.98;;
2486;SDS011;1254;49.144;8.212;2023-03-12T00:13:48;29.77;;;14.38;;
2486;SDS011;1254;49.144;8.212;2023-03-12T00:16:18;26.17;;;11.18;;
2486;SDS011;1254;49.144;8.212;2023-03-12T00:18:47;24.45;;;13.43;;
2486;SDS011;1254;49.144;8.212;2023-03-12T00:21:15;14.13;;;11.32;;
2486;SDS011;1254;49.144;8.212;2023-03-12T00:23:45;12.00;;;8.52;;
2486;SDS011;1254;49.144;8.212;2023-03-12T00:26:14;16.40;;;8.48;;
2486;SDS011;1254;49.144;8.212;2023-03-12T00:28:42;19.42;;;11.05;;
2486;SDS011;1254;49.144;8.212;2023-03-12T00:31:14;14.93;;;10.38;;
2486;SDS011;1254;49.144;8.212;2023-03-12T00:33:45;14.20;;;8.98;;
2486;SDS011;1254;49.144;8.212;2023-03-12T00:36:14;13.32;;;7.70;;
2486;SDS011;1254;49.144;8.212;2023-03-12T00:38:43;15.95;;;8.70;;
2486;SDS011;1254;49.144;8.212;2023-03-12T00:41:11;13.02;;;7.70;;
2486;SDS011;1254;49.144;8.212;2023-03-12T00:43:39;15.95;;;9.73;;
2486;SDS011;1254;49.144;8.212;2023-03-12T00:46:08;15.85;;;8.00;;
2486;SDS011;1254;49.144;8.212;2023-03-12T00:48:36;13.60;;;9.30;;
2486;SDS011;1254;49.144;8.212;2023-03-12T00:51:09;12.05;;;8.00;;
2486;SDS011;1254;49.144;8.212;2023-03-12T00:53:37;7.43;;;5.50;;
2486;SDS011;1254;49.144;8.212;2023-03-12T00:56:06;15.02;;;6.93;;
2486;SDS011;1254;49.144;8.212;2023-03-12T00:58:35;11.10;;;7.22;;
2486;SDS011;1254;49.144;8.212;2023-03-12T01:01:04;13.52;;;6.85;;
2486;SDS011;1254;49.144;8.212;2023-03-12T01:03:32;24.52;;;10.55;;
2486;SDS011;1254;49.144;8.212;2023-03-12T01:06:00;14.30;;;7.63;;
2486;SDS011;1254;49.144;8.212;2023-03-12T01:08:30;13.10;;;6.95;;
2486;SDS011;1254;49.144;8.212;2023-03-12T01:11:01;7.07;;;5.60;;
2486;SDS011;1254;49.144;8.212;2023-03-12T01:13:29;11.98;;;5.75;;
2486;SDS011;1254;49.144;8.212;2023-03-12T01:15:58;11.65;;;6.18;;
2486;SDS011;1254;49.144;8.212;2023-03-12T01:18:26;19.80;;;6.63;;
2486;SDS011;1254;49.144;8.212;2023-03-12T01:20:55;17.67;;;8.23;;
2486;SDS011;1254;49.144;8.212;2023-03-12T01:23:24;22.98;;;8.48;;
2486;SDS011;1254;49.144;8.212;2023-03-12T01:25:54;30.23;;;9.10;;
2486;SDS011;1254;49.144;8.212;2023-03-12T01:28:23;12.77;;;5.80;;
2486;SDS011;1254;49.144;8.212;2023-03-12T01:30:52;20.35;;;7.30;;
2486;SDS011;1254;49.144;8.212;2023-03-12T01:33:20;17.02;;;6.78;;
2486;SDS011;1254;49.144;8.212;2023-03-12T01:35:48;15.18;;;7.82;;
2486;SDS011;1254;49.144;8.212;2023-03-12T01:38:17;20.00;;;7.07;;
2486;SDS011;1254;49.144;8.212;2023-03-12T01:40:46;15.60;;;8.05;;
2486;SDS011;1254;49.144;8.212;2023-03-12T01:43:26;12.27;;;5.90;;
2486;SDS011;1254;49.144;8.212;2023-03-12T01:46:04;10.25;;;6.13;;
2486;SDS011;1254;49.144;8.212;2023-03-12T01:48:35;9.55;;;5.68;;
2486;SDS011;1254;49.144;8.212;2023-03-12T01:51:07;7.07;;;5.00;;
2486;SDS011;1254;49.144;8.212;2023-03-12T01:53:35;11.50;;;8.05;;
2486;SDS011;1254;49.144;8.212;2023-03-12T01:56:07;8.82;;;5.70;;
2486;SDS011;1254;49.144;8.212;2023-03-12T01:58:39;8.48;;;5.20;;
2486;SDS011;1254;49.144;8.212;2023-03-12T02:01:09;9.43;;;6.10;;
2486;SDS011;1254;49.144;8.212;2023-03-12T02:03:37;6.53;;;5.40;;
2486;SDS011;1254;49.144;8.212;2023-03-12T02:06:08;8.90;;;5.43;;
2486;SDS011;1254;49.144;8.212;2023-03-12T02:08:39;6.07;;;4.90;;
2486;SDS011;1254;49.144;8.212;2023-03-12T02:11:08;10.82;;;5.30;;
2486;SDS011;1254;49.144;8.212;2023-03-12T02:13:36;9.35;;;5.43;;
2486;SDS011;1254;49.144;8.212;2023-03-12T02:16:06;7.78;;;5.40;;
2486;SDS011;1254;49.144;8.212;2023-03-12T02:18:34;6.80;;;5.63;;
2486;SDS011;1254;49.144;8.212;2023-03-12T02:21:04;8.68;;;5.20;;
2486;SDS011;1254;49.144;8.212;2023-03-12T02:23:40;7.03;;;5.80;;
2486;SDS011;1254;49.144;8.212;2023-03-12T02:26:11;8.43;;;5.80;;
2486;SDS011;1254;49.144;8.212;2023-03-12T02:28:40;9.77;;;6.07;;
2486;SDS011;1254;49.144;8.212;2023-03-12T02:31:12;7.05;;;4.90;;
2486;SDS011;1254;49.144;8.212;2023-03-12T02:33:40;8.68;;;6.40;;
2486;SDS011;1254;49.144;8.212;2023-03-12T02:36:09;9.32;;;6.30;;
2486;SDS011;1254;49.144;8.212;2023-03-12T02:38:39;6.70;;;6.00;;
2486;SDS011;1254;49.144;8.212;2023-03-12T02:41:19;9.80;;;8.13;;
2486;SDS011;1254;49.144;8.212;2023-03-12T02:43:49;13.25;;;8.80;;
2486;SDS011;1254;49.144;8.212;2023-03-12T02:46:19;16.20;;;7.90;;
2486;SDS011;1254;49.144;8.212;2023-03-12T02:48:48;9.50;;;6.50;;
2486;SDS011;1254;49.144;8.212;2023-03-12T02:51:16;11.05;;;7.40;;
2486;SDS011;1254;49.144;8.212;2023-03-12T02:53:45;9.80;;;7.50;;
2486;SDS011;1254;49.144;8.212;2023-03-12T02:56:17;10.23;;;7.00;;
2486;SDS011;1254;49.144;8.212;2023-03-12T02:58:45;11.15;;;7.65;;
2486;SDS011;1254;49.144;8.212;2023-03-12T03:01:13;11.73;;;6.50;;
2486;SDS011;1254;49.144;8.212;2023-03-12T03:03:42;11.13;;;6.85;;
2486;SDS011;1254;49.144;8.212;2023-03-12T03:06:10;11.25;;;6.65;;
2486;SDS011;1254;49.144;8.212;2023-03-12T03:08:39;11.75;;;6.50;;
2486;SDS011;1254;49.144;8.212;2023-03-12T03:11:08;7.90;;;6.20;;
2486;SDS011;1254;49.144;8.212;2023-03-12T03:13:38;10.02;;;7.30;;
2486;SDS011;1254;49.144;8.212;2023-03-12T03:16:06;11.73;;;7.00;;
2486;SDS011;1254;49.144;8.212;2023-03-12T03:18:37;10.95;;;6.72;;
2486;SDS011;1254;49.144;8.212;2023-03-12T03:21:06;15.48;;;7.50;;
2486;SDS011;1254;49.144;8.212;2023-03-12T03:23:36;12.00;;;6.88;;
2486;SDS011;1254;49.144;8.212;2023-03-12T03:26:04;12.40;;;7.93;;
2486;SDS011;1254;49.144;8.212;2023-03-12T03:28:33;9.75;;;6.30;;
2486;SDS011;1254;49.144;8.212;2023-03-12T03:31:03;10.07;;;6.10;;
2486;SDS011;1254;49.144;8.212;2023-03-12T03:33:36;12.35;;;7.30;;
2486;SDS011;1254;49.144;8.212;2023-03-12T03:36:06;15.82;;;7.20;;
2486;SDS011;1254;49.144;8.212;2023-03-12T03:38:40;12.60;;;7.50;;
2486;SDS011;1254;49.144;8.212;2023-03-12T03:41:20;8.50;;;6.80;;
2486;SDS011;1254;49.144;8.212;2023-03-12T03:43:50;8.13;;;5.70;;
2486;SDS011;1254;49.144;8.212;2023-03-12T03:46:21;7.68;;;5.93;;
2486;SDS011;1254;49.144;8.212;2023-03-12T03:48:55;8.85;;;5.10;;
2486;SDS011;1254;49.144;8.212;2023-03-12T03:51:24;8.35;;;6.25;;
2486;SDS011;1254;49.144;8.212;2023-03-12T03:53:57;11.80;;;6.63;;
2486;SDS011;1254;49.144;8.212;2023-03-12T03:56:26;6.50;;;5.57;;
2486;SDS011;1254;49.144;8.212;2023-03-12T03:58:57;8.88;;;5.82;;
2486;SDS011;1254;49.144;8.212;2023-03-12T04:01:29;8.27;;;5.13;;
2486;SDS011;1254;49.144;8.212;2023-03-12T04:03:57;10.15;;;6.60;;
2486;SDS011;1254;49.144;8.212;2023-03-12T04:06:26;8.30;;;6.05;;
2486;SDS011;1254;49.144;8.212;2023-03-12T04:08:55;12.73;;;6.45;;
2486;SDS011;1254;49.144;8.212;2023-03-12T04:11:25;10.63;;;6.50;;
2486;SDS011;1254;49.144;8.212;2023-03-12T04:13:55;6.32;;;5.20;;
2486;SDS011;1254;49.144;8.212;2023-03-12T04:16:26;6.25;;;5.65;;
2486;SDS011;1254;49.144;8.212;2023-03-12T04:18:56;7.00;;;6.07;;
2486;SDS011;1254;49.144;8.212;2023-03-12T04:21:25;11.18;;;6.35;;
2486;SDS011;1254;49.144;8.212;2023-03-12T04:23:54;9.15;;;6.70;;
2486;SDS011;1254;49.144;8.212;2023-03-12T04:26:26;12.05;;;7.47;;
2486;SDS011;1254;49.144;8.212;2023-03-12T04:28:55;9.73;;;7.40;;
2486;SDS011;1254;49.144;8.212;2023-03-12T04:31:23;8.85;;;6.80;;
2486;SDS011;1254;49.144;8.212;2023-03-12T04:33:52;9.45;;;7.57;;
2486;SDS011;1254;49.144;8.212;2023-03-12T04:36:23;9.55;;;7.13;;
2486;SDS011;1254;49.144;8.212;2023-03-12T04:38:54;12.75;;;6.85;;
2486;SDS011;1254;49.144;8.212;2023-03-12T04:41:27;8.57;;;7.10;;
2486;SDS011;1254;49.144;8.212;2023-03-12T04:44:03;13.18;;;6.13;;
2486;SDS011;1254;49.144;8.212;2023-03-12T04:46:33;8.05;;;5.30;;
2486;SDS011;1254;49.144;8.212;2023-03-12T04:49:02;11.95;;;7.10;;
2486;SDS011;1254;49.144;8.212;2023-03-12T04:51:34;5.93;;;5.43;;
2486;SDS011;1254;49.144;8.212;2023-03-12T04:54:04;12.65;;;6.07;;
2486;SDS011;1254;49.144;8.212;2023-03-12T04:56:33;8.85;;;5.97;;
2486;SDS011;1254;49.144;8.212;2023-03-12T04:59:03;9.23;;;6.38;;
2486;SDS011;1254;49.144;8.212;2023-03-12T05:01:33;11.77;;;7.78;;
2486;SDS011;1254;49.144;8.212;2023-03-12T05:04:06;12.25;;;7.88;;
2486;SDS011;1254;49.144;8.212;2023-03-12T05:06:36;11.25;;;8.18;;
2486;SDS011;1254;49.144;8.212;2023-03-12T05:09:04;7.95;;;6.95;;
2486;SDS011;1254;49.144;8.212;2023-03-12T05:11:34;9.27;;;7.13;;
2486;SDS011;1254;49.144;8.212;2023-03-12T05:14:02;9.18;;;8.20;;
2486;SDS011;1254;49.144;8.212;2023-03-12T05:16:30;17.02;;;8.00;;
2486;SDS011;1254;49.144;8.212;2023-03-12T05:18:59;10.18;;;8.77;;
2486;SDS011;1254;49.144;8.212;2023-03-12T05:21:29;11.05;;;8.38;;
2486;SDS011;1254;49.144;8.212;2023-03-12T05:23:59;9.93;;;7.72;;
2486;SDS011;1254;49.144;8.212;2023-03-12T05:26:29;15.95;;;8.43;;
2486;SDS011;1254;49.144;8.212;2023-03-12T05:29:14;14.75;;;9.80;;
2486;SDS011;1254;49.144;8.212;2023-03-12T05:31:44;11.00;;;8.15;;
2486;SDS011;1254;49.144;8.212;2023-03-12T05:34:13;14.52;;;9.20;;
2486;SDS011;1254;49.144;8.212;2023-03-12T05:36:44;10.60;;;9.00;;
2486;SDS011;1254;49.144;8.212;2023-03-12T05:39:18;12.43;;;8.95;;
2486;SDS011;1254;49.144;8.212;2023-03-12T05:41:47;14.25;;;8.73;;
2486;SDS011;1254;49.144;8.212;2023-03-12T05:44:18;13.95;;;8.70;;
2486;SDS011;1254;49.144;8.212;2023-03-12T05:46:51;13.98;;;9.70;;
2486;SDS011;1254;49.144;8.212;2023-03-12T05:49:22;17.75;;;10.02;;
2486;SDS011;1254;49.144;8.212;2023-03-12T05:51:50;16.73;;;10.45;;
2486;SDS011;1254;49.144;8.212;2023-03-12T05:54:22;16.30;;;9.77;;
2486;SDS011;1254;49.144;8.212;2023-03-12T05:56:55;14.68;;;9.40;;
2486;SDS011;1254;49.144;8.212;2023-03-12T05:59:25;18.45;;;9.05;;
2486;SDS011;1254;49.144;8.212;2023-03-12T06:01:55;11.98;;;9.15;;
2486;SDS011;1254;49.144;8.212;2023-03-12T06:04:26;12.35;;;9.05;;
2486;SDS011;1254;49.144;8.212;2023-03-12T06:06:55;23.30;;;9.32;;
2486;SDS011;1254;49.144;8.212;2023-03-12T06:09:25;12.43;;;8.77;;
2486;SDS011;1254;49.144;8.212;2023-03-12T06:11:53;11.20;;;8.13;;
2486;SDS011;1254;49.144;8.212;2023-03-12T06:14:22;10.88;;;8.15;;
2486;SDS011;1254;49.144;8.212;2023-03-12T06:16:51;13.30;;;10.57;;
2486;SDS011;1254;49.144;8.212;2023-03-12T06:19:22;16.58;;;8.45;;
2486;SDS011;1254;49.144;8.212;2023-03-12T06:21:50;25.70;;;8.05;;
2486;SDS011;1254;49.144;8.212;2023-03-12T06:24:19;13.18;;;8.63;;
2486;SDS011;1254;49.144;8.212;2023-03-12T06:26:51;8.48;;;7.57;;
2486;SDS011;1254;49.144;8.212;2023-03-12T06:29:20;11.50;;;8.07;;
2486;SDS011;1254;49.144;8.212;2023-03-12T06:31:48;10.50;;;8.57;;
2486;SDS011;1254;49.144;8.212;2023-03-12T06:34:17;11.30;;;7.63;;
2486;SDS011;1254;49.144;8.212;2023-03-12T06:36:46;9.65;;;7.45;;
2486;SDS011;1254;49.144;8.212;2023-03-12T06:39:14;9.77;;;8.68;;
2486;SDS011;1254;49.144;8.212;2023-03-12T06:41:43;17.17;;;8.15;;
2486;SDS011;1254;49.144;8.212;2023-03-12T06:44:14;11.10;;;7.40;;
2486;SDS011;1254;49.144;8.212;2023-03-12T06:46:45;14.05;;;8.40;;
2486;SDS011;1254;49.144;8.212;2023-03-12T06:49:13;11.98;;;7.38;;
2486;SDS011;1254;49.144;8.212;2023-03-12T06:51:44;12.50;;;7.82;;
2486;SDS011;1254;49.144;8.212;2023-03-12T06:54:12;11.60;;;8.05;;
2486;SDS011;1254;49.144;8.212;2023-03-12T06:56:41;10.25;;;8.85;;
2486;SDS011;1254;49.144;8.212;2023-03-12T06:59:09;9.60;;;7.20;;
2486;SDS011;1254;49.144;8.212;2023-03-12T07:01:39;11.32;;;9.50;;
2486;SDS011;1254;49.144;8.212;2023-03-12T07:04:07;11.40;;;8.07;;
2486;SDS011;1254;49.144;8.212;2023-03-12T07:06:36;12.82;;;8.30;;
2486;SDS011;1254;49.144;8.212;2023-03-12T07:09:04;13.85;;;8.82;;
2486;SDS011;1254;49.144;8.212;2023-03-12T07:11:33;11.45;;;9.48;;
2486;SDS011;1254;49.144;8.212;2023-03-12T07:14:04;9.27;;;8.15;;
2486;SDS011;1254;49.144;8.212;2023-03-12T07:16:33;11.25;;;8.35;;
2486;SDS011;1254;49.144;8.212;2023-03-12T07:19:03;13.18;;;8.48;;
2486;SDS011;1254;49.144;8.212;2023-03-12T07:21:32;8.52;;;7.40;;
2486;SDS011;1254;49.144;8.212;2023-03-12T07:24:00;13.73;;;8.20;;
2486;SDS011;1254;49.144;8.212;2023-03-12T07:26:32;11.43;;;9.77;;
2486;SDS011;1254;49.144;8.212;2023-03-12T07:29:01;16.30;;;8.95;;
2486;SDS011;1254;49.144;8.212;2023-03-12T07:31:30;12.80;;;8.57;;
2486;SDS011;1254;49.144;8.212;2023-03-12T07:33:58;11.63;;;7.72;;
2486;SDS011;1254;49.144;8.212;2023-03-12T07:36:31;18.73;;;10.05;;
2486;SDS011;1254;49.144;8.212;2023-03-12T07:39:00;16.85;;;9.93;;
2486;SDS011;1254;49.144;8.212;2023-03-12T07:41:29;12.98;;;10.02;;
2486;SDS011;1254;49.144;8.212;2023-03-12T07:43:57;14.65;;;10.30;;
2486;SDS011;1254;49.144;8.212;2023-03-12T07:46:26;14.07;;;9.77;;
2486;SDS011;1254;49.144;8.212;2023-03-12T07:48:54;15.50;;;9.88;;
2486;SDS011;1254;49.144;8.212;2023-03-12T07:51:25;13.98;;;10.05;;
2486;SDS011;1254;49.144;8.212;2023-03-12T07:53:55;17.88;;;10.77;;
2486;SDS011;1254;49.144;8.212;2023-03-12T07:56:24;11.77;;;10.23;;
2486;SDS011;1254;49.144;8.212;2023-03-12T07:58:53;14.68;;;10.38;;
2486;SDS011;1254;49.144;8.212;2023-03-12T08:01:31;20.73;;;13.38;;
2486;SDS011;1254;49.144;8.212;2023-03-12T08:04:19;12.60;;;10.40;;
2486;SDS011;1254;49.144;8.212;2023-03-12T08:06:55;15.50;;;10.80;;
2486;SDS011;1254;49.144;8.212;2023-03-12T08:09:48;14.38;;;10.40;;
2486;SDS011;1254;49.144;8.212;2023-03-12T08:12:55;11.85;;;9.63;;
2486;SDS011;1254;49.144;8.212;2023-03-12T08:15:42;17.60;;;11.35;;
2486;SDS011;1254;49.144;8.212;2023-03-12T08:18:13;18.90;;;11.88;;
2486;SDS011;1254;49.144;8.212;2023-03-12T08:21:14;17.45;;;11.57;;
2486;SDS011;1254;49.144;8.212;2023-03-12T08:24:46;15.63;;;11.30;;
2486;SDS011;1254;49.144;8.212;2023-03-12T08:44:42;18.33;;;12.15;;
2486;SDS011;1254;49.144;8.212;2023-03-12T08:52:32;20.67;;;12.82;;
2486;SDS011;1254;49.144;8.212;2023-03-12T09:34:58;14.93;;;12.75;;
2486;SDS011;1254;49.144;8.212;2023-03-12T09:37:49;17.05;;;13.07;;
2486;SDS011;1254;49.144;8.212;2023-03-12T09:40:24;17.10;;;13.70;;
2486;SDS011;1254;49.144;8.212;2023-03-12T09:43:00;22.27;;;15.75;;
2486;SDS011;1254;49.144;8.212;2023-03-12T09:45:31;20.27;;;15.02;;
2486;SDS011;1254;49.144;8.212;2023-03-12T09:48:11;18.30;;;13.98;;
2486;SDS011;1254;49.144;8.212;2023-03-12T09:50:45;22.98;;;14.40;;
2486;SDS011;1254;49.144;8.212;2023-03-12T09:53:19;18.90;;;14.30;;
2486;SDS011;1254;49.144;8.212;2023-03-12T09:56:00;18.45;;;15.45;;
2486;SDS011;1254;49.144;8.212;2023-03-12T09:58:38;20.00;;;14.50;;
2486;SDS011;1254;49.144;8.212;2023-03-12T10:01:37;19.58;;;14.90;;
2486;SDS011;1254;49.144;8.212;2023-03-12T10:04:25;18.65;;;14.55;;
2486;SDS011;1254;49.144;8.212;2023-03-12T10:07:03;22.48;;;14.52;;
2486;SDS011;1254;49.144;8.212;2023-03-12T10:12:33;24.40;;;14.88;;
2486;SDS011;1254;49.144;8.212;2023-03-12T10:15:24;20.27;;;14.43;;
2486;SDS011;1254;49.144;8.212;2023-03-12T10:17:59;24.63;;;15.25;;
2486;SDS011;1254;49.144;8.212;2023-03-12T10:23:37;21.15;;;15.25;;
2486;SDS011;1254;49.144;8.212;2023-03-12T10:26:18;19.63;;;16.27;;
2486;SDS011;1254;49.144;8.212;2023-03-12T10:29:16;19.70;;;17.50;;
2486;SDS011;1254;49.144;8.212;2023-03-12T10:31:48;23.85;;;18.13;;
2486;SDS011;1254;49.144;8.212;2023-03-12T10:34:18;20.98;;;15.35;;
2486;SDS011;1254;49.144;8.212;2023-03-12T10:36:47;22.52;;;17.02;;
2486;SDS011;1254;49.144;8.212;2023-03-12T10:39:18;20.08;;;16.30;;
2486;SDS011;1254;49.144;8.212;2023-03-12T10:41:47;17.23;;;14.88;;
2486;SDS011;1254;49.144;8.212;2023-03-12T10:44:17;19.58;;;16.55;;
2486;SDS011;1254;49.144;8.212;2023-03-12T10:46:51;18.52;;;14.65;;
2486;SDS011;1254;49.144;8.212;2023-03-12T10:49:27;16.15;;;11.75;;
2486;SDS011;1254;49.144;8.212;2023-03-12T10:52:13;16.85;;;12.73;;
2486;SDS011;1254;49.144;8.212;2023-03-12T10:54:45;15.90;;;12.32;;
2486;SDS011;1254;49.144;8.212;2023-03-12T11:00:15;14.90;;;11.65;;
2486;SDS011;1254;49.144;8.212;2023-03-12T11:02:54;12.43;;;11.10;;
2486;SDS011;1254;49.144;8.212;2023-03-12T11:05:24;12.27;;;10.68;;
2486;SDS011;1254;49.144;8.212;2023-03-12T11:08:17;17.33;;;13.10;;
2486;SDS011;1254;49.144;8.212;2023-03-12T11:11:00;17.98;;;12.40;;
2486;SDS011;1254;49.144;8.212;2023-03-12T11:13:45;15.02;;;12.15;;
2486;SDS011;1254;49.144;8.212;2023-03-12T11:16:25;15.95;;;11.18;;
2486;SDS011;1254;49.144;8.212;2023-03-12T11:18:55;11.63;;;10.43;;
2486;SDS011;1254;49.144;8.212;2023-03-12T11:21:27;11.90;;;10.80;;
2486;SDS011;1254;49.144;8.212;2023-03-12T11:24:09;11.90;;;10.70;;
2486;SDS011;1254;49.144;8.212;2023-03-12T11:26:46;11.48;;;10.38;;
2486;SDS011;1254;49.144;8.212;2023-03-12T11:29:23;14.18;;;10.73;;
2486;SDS011;1254;49.144;8.212;2023-03-12T11:32:00;11.90;;;10.45;;
2486;SDS011;1254;49.144;8.212;2023-03-12T11:34:32;12.52;;;11.23;;
2486;SDS011;1254;49.144;8.212;2023-03-12T11:37:05;10.63;;;9.55;;
2486;SDS011;1254;49.144;8.212;2023-03-12T11:39:38;6.13;;;5.10;;
2486;SDS011;1254;49.144;8.212;2023-03-12T11:42:18;6.32;;;5.60;;
2486;SDS011;1254;49.144;8.212;2023-03-12T11:44:52;9.98;;;5.45;;
2486;SDS011;1254;49.144;8.212;2023-03-12T11:47:43;4.03;;;3.72;;
2486;SDS011;1254;49.144;8.212;2023-03-12T11:50:24;6.60;;;5.60;;
2486;SDS011;1254;49.144;8.212;2023-03-12T11:53:15;5.65;;;4.60;;
2486;SDS011;1254;49.144;8.212;2023-03-12T11:55:59;4.68;;;4.28;;
2486;SDS011;1254;49.144;8.212;2023-03-12T11:58:40;9.43;;;4.82;;
2486;SDS011;1254;49.144;8.212;2023-03-12T12:01:14;4.80;;;4.40;;
2486;SDS011;1254;49.144;8.212;2023-03-12T12:03:53;8.65;;;4.80;;
2486;SDS011;1254;49.144;8.212;2023-03-12T12:06:45;5.30;;;4.80;;
2486;SDS011;1254;49.144;8.212;2023-03-12T12:09:20;4.93;;;4.40;;
2486;SDS011;1254;49.144;8.212;2023-03-12T12:11:59;4.88;;;3.67;;
2486;SDS011;1254;49.144;8.212;2023-03-12T12:14:41;4.63;;;4.20;;
2486;SDS011;1254;49.144;8.212;2023-03-12T12:17:14;7.35;;;4.82;;
2486;SDS011;1254;49.144;8.212;2023-03-12T12:20:02;9.53;;;3.97;;
2486;SDS011;1254;49.144;8.212;2023-03-12T12:23:00;5.80;;;3.67;;
2486;SDS011;1254;49.144;8.212;2023-03-12T12:25:36;10.00;;;4.40;;
2486;SDS011;1254;49.144;8.212;2023-03-12T12:28:14;9.35;;;4.03;;
2486;SDS011;1254;49.144;8.212;2023-03-12T12:30:50;7.87;;;3.33;;
2486;SDS011;1254;49.144;8.212;2023-03-12T12:33:24;6.77;;;4.10;;
2486;SDS011;1254;49.144;8.212;2023-03-12T12:35:56;7.43;;;4.53;;
2486;SDS011;1254;49.144;8.212;2023-03-12T12:41:56;5.70;;;5.07;;
2486;SDS011;1254;49.144;8.212;2023-03-12T12:44:26;6.77;;;4.70;;
2486;SDS011;1254;49.144;8.212;2023-03-12T12:46:57;8.83;;;5.50;;
2486;SDS011;1254;49.144;8.212;2023-03-12T12:49:28;5.40;;;4.97;;
2486;SDS011;1254;49.144;8.212;2023-03-12T12:51:58;8.20;;;4.50;;
2486;SDS011;1254;49.144;8.212;2023-03-12T12:54:32;5.47;;;4.97;;
2486;SDS011;1254;49.144;8.212;2023-03-12T12:57:06;7.20;;;5.50;;
2486;SDS011;1254;49.144;8.212;2023-03-12T12:59:45;5.80;;;5.20;;
2486;SDS011;1254;49.144;8.212;2023-03-12T13:02:20;5.60;;;5.03;;
2486;SDS011;1254;49.144;8.212;2023-03-12T13:04:54;9.33;;;4.47;;
2486;SDS011;1254;49.144;8.212;2023-03-12T13:07:31;8.30;;;3.73;;
2486;SDS011;1254;49.144;8.212;2023-03-12T13:10:04;10.83;;;3.90;;
2486;SDS011;1254;49.144;8.212;2023-03-12T13:13:12;12.10;;;4.60;;
2486;SDS011;1254;49.144;8.212;2023-03-12T13:15:47;10.40;;;4.03;;
2486;SDS011;1254;49.144;8.212;2023-03-12T13:18:24;9.13;;;3.30;;
2486;SDS011;1254;49.144;8.212;2023-03-12T13:24:15;9.57;;;3.80;;
2486;SDS011;1254;49.144;8.212;2023-03-12T13:26:51;7.00;;;2.77;;
2486;SDS011;1254;49.144;8.212;2023-03-12T13:29:22;8.80;;;3.53;;
2486;SDS011;1254;49.144;8.212;2023-03-12T13:31:51;12.30;;;4.10;;
2486;SDS011;1254;49.144;8.212;2023-03-12T13:41:46;10.97;;;5.10;;
2486;SDS011;1254;49.144;8.212;2023-03-12T13:44:29;11.80;;;4.30;;
2486;SDS011;1254;49.144;8.212;2023-03-12T13:47:02;11.87;;;4.73;;
2486;SDS011;1254;49.144;8.212;2023-03-12T13:49:36;13.63;;;6.03;;
2486;SDS011;1254;49.144;8.212;2023-03-12T13:52:09;17.00;;;5.40;;
2486;SDS011;1254;49.144;8.212;2023-03-12T13:54:40;13.03;;;5.27;;
2486;SDS011;1254;49.144;8.212;2023-03-12T13:57:11;12.33;;;5.20;;
2486;SDS011;1254;49.144;8.212;2023-03-12T13:59:47;11.80;;;4.73;;
2486;SDS011;1254;49.144;8.212;2023-03-12T14:02:20;13.70;;;5.37;;
2486;SDS011;1254;49.144;8.212;2023-03-12T14:04:50;7.90;;;4.33;;
2486;SDS011;1254;49.144;8.212;2023-03-12T14:07:23;10.63;;;4.80;;
2486;SDS011;1254;49.144;8.212;2023-03-12T14:10:02;9.33;;;4.77;;
2486;SDS011;1254;49.144;8.212;2023-03-12T14:12:36;9.97;;;4.53;;
2486;SDS011;1254;49.144;8.212;2023-03-12T14:15:13;7.87;;;4.83;;
2486;SDS011;1254;49.144;8.212;2023-03-12T14:17:43;11.23;;;5.00;;
2486;SDS011;1254;49.144;8.212;2023-03-12T14:20:13;8.97;;;5.07;;
2486;SDS011;1254;49.144;8.212;2023-03-12T14:22:43;9.40;;;5.10;;
2486;SDS011;1254;49.144;8.212;2023-03-12T14:25:13;7.20;;;4.73;;
2486;SDS011;1254;49.144;8.212;2023-03-12T14:27:45;11.40;;;4.70;;
2486;SDS011;1254;49.144;8.212;2023-03-12T14:30:15;17.27;;;4.13;;
2486;SDS011;1254;49.144;8.212;2023-03-12T14:32:47;19.80;;;5.17;;
2486;SDS011;1254;49.144;8.212;2023-03-12T14:35:18;12.07;;;5.50;;
2486;SDS011;1254;49.144;8.212;2023-03-12T14:37:50;9.33;;;5.47;;
2486;SDS011;1254;49.144;8.212;2023-03-12T14:40:21;7.77;;;4.80;;
2486;SDS011;1254;49.144;8.212;2023-03-12T14:42:53;14.40;;;6.43;;
2486;SDS011;1254;49.144;8.212;2023-03-12T14:45:22;8.43;;;5.70;;
2486;SDS011;1254;49.144;8.212;2023-03-12T14:47:52;13.43;;;5.57;;
2486;SDS011;1254;49.144;8.212;2023-03-12T14:50:22;14.90;;;6.03;;
2486;SDS011;1254;49.144;8.212;2023-03-12T14:52:51;11.00;;;6.03;;
2486;SDS011;1254;49.144;8.212;2023-03-12T14:55:21;21.53;;;7.20;;
2486;SDS011;1254;49.144;8.212;2023-03-12T14:58:02;12.00;;;5.93;;
2486;SDS011;1254;49.144;8.212;2023-03-12T15:00:31;10.93;;;5.77;;
2486;SDS011;1254;49.144;8.212;2023-03-12T15:03:02;15.47;;;6.83;;
2486;SDS011;1254;49.144;8.212;2023-03-12T15:05:31;10.33;;;6.00;;
2486;SDS011;1254;49.144;8.212;2023-03-12T15:08:01;10.17;;;5.43;;
2486;SDS011;1254;49.144;8.212;2023-03-12T15:10:34;12.10;;;6.10;;
2486;SDS011;1254;49.144;8.212;2023-03-12T15:13:04;14.87;;;6.47;;
2486;SDS011;1254;49.144;8.212;2023-03-12T15:15:34;17.07;;;5.87;;
2486;SDS011;1254;49.144;8.212;2023-03-12T15:18:04;13.07;;;6.07;;
2486;SDS011;1254;49.144;8.212;2023-03-12T15:20:33;7.07;;;5.17;;
2486;SDS011;1254;49.144;8.212;2023-03-12T15:23:02;14.63;;;6.13;;
2486;SDS011;1254;49.144;8.212;2023-03-12T15:25:31;12.93;;;6.90;;
2486;SDS011;1254;49.144;8.212;2023-03-12T15:28:01;13.03;;;5.97;;
2486;SDS011;1254;49.144;8.212;2023-03-12T15:30:31;13.30;;;5.90;;
2486;SDS011;1254;49.144;8.212;2023-03-12T15:33:07;14.77;;;5.77;;
2486;SDS011;1254;49.144;8.212;2023-03-12T15:35:36;8.30;;;5.40;;
2486;SDS011;1254;49.144;8.212;2023-03-12T15:38:12;16.87;;;5.90;;
2486;SDS011;1254;49.144;8.212;2023-03-12T15:40:43;18.07;;;6.30;;
2486;SDS011;1254;49.144;8.212;2023-03-12T15:43:15;8.47;;;5.20;;
2486;SDS011;1254;49.144;8.212;2023-03-12T15:45:46;13.60;;;7.40;;
2486;SDS011;1254;49.144;8.212;2023-03-12T15:48:17;9.70;;;6.20;;
2486;SDS011;1254;49.144;8.212;2023-03-12T15:50:47;17.50;;;8.00;;
2486;SDS011;1254;49.144;8.212;2023-03-12T15:53:26;13.33;;;6.73;;
2486;SDS011;1254;49.144;8.212;2023-03-12T15:56:02;17.40;;;6.47;;
2486;SDS011;1254;49.144;8.212;2023-03-12T15:58:31;12.13;;;6.80;;
2486;SDS011;1254;49.144;8.212;2023-03-12T16:01:08;13.73;;;6.77;;
2486;SDS011;1254;49.144;8.212;2023-03-12T16:03:38;13.03;;;6.80;;
2486;SDS011;1254;49.144;8.212;2023-03-12T16:06:15;18.40;;;6.20;;
2486;SDS011;1254;49.144;8.212;2023-03-12T16:08:45;18.73;;;7.10;;
2486;SDS011;1254;49.144;8.212;2023-03-12T16:11:55;12.33;;;5.87;;
2486;SDS011;1254;49.144;8.212;2023-03-12T16:14:28;21.43;;;9.50;;
2486;SDS011;1254;49.144;8.212;2023-03-12T16:17:00;47.50;;;21.53;;
2486;SDS011;1254;49.144;8.212;2023-03-12T16:19:28;13.27;;;7.07;;
2486;SDS011;1254;49.144;8.212;2023-03-12T16:21:58;14.13;;;5.73;;
2486;SDS011;1254;49.144;8.212;2023-03-12T16:24:40;14.43;;;7.23;;
2486;SDS011;1254;49.144;8.212;2023-03-12T16:27:10;19.20;;;11.13;;
2486;SDS011;1254;49.144;8.212;2023-03-12T16:29:40;16.07;;;6.40;;
2486;SDS011;1254;49.144;8.212;2023-03-12T16:32:11;12.90;;;6.33;;
2486;SDS011;1254;49.144;8.212;2023-03-12T16:34:49;16.00;;;6.40;;
2486;SDS011;1254;49.144;8.212;2023-03-12T16:37:17;9.67;;;6.53;;
2486;SDS011;1254;49.144;8.212;2023-03-12T16:39:45;10.07;;;5.10;;
2486;SDS011;1254;49.144;8.212;2023-03-12T16:42:15;11.17;;;5.47;;
2486;SDS011;1254;49.144;8.212;2023-03-12T16:44:45;13.23;;;5.73;;
2486;SDS011;1254;49.144;8.212;2023-03-12T16:47:15;15.00;;;6.30;;
2486;SDS011;1254;49.144;8.212;2023-03-12T16:49:43;20.38;;;7.05;;
2486;SDS011;1254;49.144;8.212;2023-03-12T16:52:13;18.97;;;6.43;;
2486;SDS011;1254;49.144;8.212;2023-03-12T16:54:42;16.43;;;6.33;;
2486;SDS011;1254;49.144;8.212;2023-03-12T16:57:12;20.40;;;10.48;;
2486;SDS011;1254;49.144;8.212;2023-03-12T16:59:43;15.55;;;9.35;;
2486;SDS011;1254;49.144;8.212;2023-03-12T17:02:13;14.25;;;6.55;;